createdAt,value
2022-08-18T00:02:01.201Z,1.70
2022-08-18T00:04:36.262Z,2.05
2022-08-18T00:07:05.978Z,3.33
2022-08-18T00:09:36.311Z,1.85
2022-08-18T00:12:08.128Z,2.35
2022-08-18T00:14:35.403Z,2.20
2022-08-18T00:17:02.496Z,2.30
2022-08-18T00:19:46.593Z,2.70
2022-08-18T00:22:17.908Z,1.58
2022-08-18T00:24:49.286Z,1.25
2022-08-18T00:27:28.726Z,2.15
2022-08-18T00:30:01.410Z,0.88
2022-08-18T00:32:34.977Z,3.00
2022-08-18T00:35:13.769Z,2.63
2022-08-18T00:37:42.420Z,3.15
2022-08-18T00:40:14.043Z,2.28
2022-08-18T00:42:45.913Z,1.85
2022-08-18T00:45:25.492Z,1.02
2022-08-18T00:47:53.442Z,1.42
2022-08-18T00:50:31.834Z,2.50
2022-08-18T00:53:03.973Z,3.55
2022-08-18T00:55:33.576Z,1.10
2022-08-18T00:58:16.002Z,1.13
2022-08-18T01:00:45.398Z,1.67
2022-08-18T01:03:16.855Z,0.75
2022-08-18T01:06:11.842Z,2.30
2022-08-18T01:08:41.135Z,1.92
2022-08-18T01:11:10.661Z,1.40
2022-08-18T01:13:41.716Z,2.72
2022-08-18T01:16:27.923Z,1.35
2022-08-18T01:19:13.390Z,2.92
2022-08-18T01:21:53.669Z,3.65
2022-08-18T01:24:54.408Z,2.80
2022-08-18T01:27:22.029Z,2.88
2022-08-18T01:29:50.365Z,1.30
2022-08-18T01:32:22.939Z,2.03
2022-08-18T01:34:52.465Z,2.03
2022-08-18T01:37:23.558Z,3.35
2022-08-18T01:41:24.377Z,0.90
2022-08-18T01:42:39.605Z,2.17
2022-08-18T01:45:08.199Z,2.65
2022-08-18T01:47:47.354Z,1.65
2022-08-18T01:50:23.953Z,10.00
2022-08-18T01:52:53.554Z,2.15
2022-08-18T01:55:21.413Z,1.00
2022-08-18T01:57:48.571Z,1.25
2022-08-18T02:00:18.460Z,2.83
2022-08-18T02:02:47.186Z,3.53
2022-08-18T02:05:51.035Z,2.75
2022-08-18T02:08:18.211Z,5.72
2022-08-18T02:10:45.915Z,1.30
2022-08-18T02:13:13.164Z,4.78
2022-08-18T02:15:41.937Z,2.05
2022-08-18T02:18:32.429Z,1.15
2022-08-18T02:21:14.906Z,2.87
2022-08-18T02:23:52.782Z,2.25
2022-08-18T02:26:23.480Z,2.80
2022-08-18T02:28:51.006Z,1.13
2022-08-18T02:31:20.380Z,1.17
2022-08-18T02:33:52.064Z,1.50
2022-08-18T02:36:23.817Z,2.38
2022-08-18T02:38:54.842Z,1.70
2022-08-18T02:41:29.671Z,2.05
2022-08-18T02:43:58.424Z,2.40
2022-08-18T02:46:30.015Z,5.85
2022-08-18T02:48:59.782Z,1.65
2022-08-18T02:51:26.997Z,4.47
2022-08-18T02:53:54.983Z,2.88
2022-08-18T02:56:32.927Z,3.90
2022-08-18T02:59:12.197Z,2.75
2022-08-18T03:01:42.306Z,2.47
2022-08-18T03:04:12.621Z,3.35
2022-08-18T03:06:40.024Z,5.45
2022-08-18T03:09:10.489Z,3.60
2022-08-18T03:11:38.540Z,4.00
2022-08-18T03:14:07.422Z,4.22
2022-08-18T03:16:52.989Z,1.58
2022-08-18T03:19:23.866Z,2.10
2022-08-18T03:21:51.153Z,2.47
2022-08-18T03:24:22.299Z,4.82
2022-08-18T03:26:49.700Z,3.63
2022-08-18T03:29:17.014Z,2.33
2022-08-18T03:31:45.567Z,3.17
2022-08-18T03:34:13.232Z,4.43
2022-08-18T03:36:43.116Z,2.40
2022-08-18T03:39:12.336Z,0.80
2022-08-18T03:41:58.692Z,3.35
2022-08-18T03:44:33.791Z,5.32
2022-08-18T03:47:03.920Z,5.45
2022-08-18T03:49:33.870Z,1.85
2022-08-18T03:52:01.731Z,3.95
2022-08-18T03:54:32.445Z,2.28
2022-08-18T03:59:45.077Z,5.35
2022-08-18T04:02:12.264Z,3.03
2022-08-18T04:04:43.042Z,1.10
2022-08-18T04:07:14.456Z,1.25
2022-08-18T04:09:43.007Z,4.05
2022-08-18T04:12:16.198Z,5.28
2022-08-18T04:14:48.608Z,2.85
2022-08-18T04:17:24.417Z,4.25
2022-08-18T04:22:19.612Z,2.50
2022-08-18T04:24:49.664Z,5.95
2022-08-18T04:27:18.164Z,1.48
2022-08-18T04:29:45.259Z,3.72
2022-08-18T04:32:12.457Z,2.33
2022-08-18T04:34:39.586Z,4.65
2022-08-18T04:37:09.708Z,2.88
2022-08-18T04:39:37.762Z,5.35
2022-08-18T04:42:06.054Z,4.90
2022-08-18T04:44:33.814Z,3.72
2022-08-18T04:47:02.130Z,1.67
2022-08-18T04:49:30.438Z,2.40
2022-08-18T04:52:34.864Z,6.55
2022-08-18T04:55:04.085Z,6.20
2022-08-18T04:57:34.919Z,5.10
2022-08-18T05:00:04.225Z,5.82
2022-08-18T05:02:33.222Z,3.35
2022-08-18T05:05:04.235Z,6.00
2022-08-18T05:07:31.687Z,4.30
2022-08-18T05:09:59.265Z,5.97
2022-08-18T05:12:27.052Z,3.65
2022-08-18T05:14:57.200Z,5.32
2022-08-18T05:17:30.030Z,2.30
2022-08-18T05:20:02.093Z,4.75
2022-08-18T05:22:31.337Z,5.35
2022-08-18T05:27:45.297Z,4.65
2022-08-18T05:30:14.644Z,3.13
2022-08-18T05:32:48.716Z,8.25
2022-08-18T05:35:22.292Z,7.30
2022-08-18T05:38:22.426Z,10.18
2022-08-18T05:41:14.935Z,5.68
2022-08-18T05:43:51.834Z,5.25
2022-08-18T05:46:40.103Z,7.88
2022-08-18T05:49:08.475Z,7.10
2022-08-18T05:51:42.513Z,8.80
2022-08-18T05:54:29.859Z,13.95
2022-08-18T05:57:02.495Z,4.18
2022-08-18T05:59:38.697Z,5.72
2022-08-18T06:02:33.286Z,6.95
2022-08-18T06:05:13.282Z,9.20
2022-08-18T06:07:44.438Z,9.57
2022-08-18T06:10:13.338Z,5.80
2022-08-18T06:12:47.212Z,8.80
2022-08-18T06:15:25.263Z,9.35
2022-08-18T06:18:14.481Z,5.18
2022-08-18T06:21:00.021Z,8.75
2022-08-18T06:23:33.441Z,6.60
2022-08-18T06:26:24.204Z,14.20
2022-08-18T06:29:25.166Z,7.60
2022-08-18T06:32:02.014Z,5.30
2022-08-18T06:35:04.142Z,7.15
2022-08-18T06:37:56.675Z,8.48
2022-08-18T06:40:25.085Z,7.25
2022-08-18T06:42:52.297Z,6.57
2022-08-18T06:45:33.809Z,6.28
2022-08-18T06:48:23.041Z,8.45
2022-08-18T06:50:58.841Z,4.60
2022-08-18T06:53:54.802Z,7.28
2022-08-18T06:56:45.175Z,7.78
2022-08-18T06:59:29.308Z,5.00
2022-08-18T07:02:19.685Z,5.25
2022-08-18T07:05:05.635Z,7.18
2022-08-18T07:07:50.912Z,7.25
2022-08-18T07:10:18.303Z,8.02
2022-08-18T07:12:45.390Z,8.75
2022-08-18T07:15:13.479Z,7.10
2022-08-18T07:17:44.085Z,7.13
2022-08-18T07:20:22.833Z,5.20
2022-08-18T07:23:02.434Z,5.90
2022-08-18T07:26:01.859Z,12.57
2022-08-18T07:28:30.109Z,7.70
2022-08-18T07:31:31.929Z,8.52
2022-08-18T07:34:02.314Z,5.80
2022-08-18T07:36:35.640Z,12.65
2022-08-18T07:39:14.627Z,14.30
2022-08-18T07:41:49.507Z,13.07
2022-08-18T07:44:25.895Z,6.28
2022-08-18T07:47:00.731Z,7.15
2022-08-18T07:49:35.300Z,6.28
2022-08-18T07:52:35.805Z,8.55
2022-08-18T07:55:09.970Z,9.63
2022-08-18T07:57:55.966Z,10.23
2022-08-18T08:01:00.786Z,13.25
2022-08-18T08:03:46.689Z,7.88
2022-08-18T08:08:50.463Z,7.63
2022-08-18T08:11:59.622Z,8.98
2022-08-18T08:14:44.193Z,6.78
2022-08-18T08:17:42.780Z,9.07
2022-08-18T08:20:21.314Z,9.55
2022-08-18T08:23:01.553Z,7.00
2022-08-18T08:25:47.381Z,6.38
2022-08-18T08:28:33.611Z,4.38
2022-08-18T08:34:29.462Z,5.60
2022-08-18T08:37:05.761Z,8.70
2022-08-18T08:40:20.120Z,6.32
2022-08-18T08:43:10.917Z,8.70
2022-08-18T08:45:57.419Z,6.60
2022-08-18T08:48:29.391Z,7.57
2022-08-18T08:51:03.006Z,4.88
2022-08-18T08:53:53.605Z,6.80
2022-08-18T08:56:24.053Z,6.97
2022-08-18T08:59:13.091Z,8.82
2022-08-18T09:01:49.443Z,6.90
2022-08-18T09:04:31.563Z,7.47
2022-08-18T09:07:29.995Z,9.23
2022-08-18T09:10:39.690Z,5.97
2022-08-18T09:13:49.014Z,11.98
2022-08-18T09:16:43.475Z,8.48
2022-08-18T09:19:28.869Z,8.23
2022-08-18T09:22:19.613Z,5.38
2022-08-18T09:24:53.253Z,3.33
2022-08-18T09:27:23.403Z,3.28
2022-08-18T09:29:55.565Z,3.67
2022-08-18T09:32:23.856Z,6.30
2022-08-18T09:35:33.064Z,9.68
2022-08-18T09:38:29.459Z,7.97
2022-08-18T09:41:18.519Z,10.55
2022-08-18T09:44:12.153Z,10.27
2022-08-18T09:46:48.343Z,8.23
2022-08-18T09:49:27.976Z,9.48
2022-08-18T09:52:21.252Z,7.82
2022-08-18T09:54:58.795Z,4.05
2022-08-18T09:57:27.395Z,10.52
2022-08-18T10:00:03.582Z,7.53
2022-08-18T10:02:37.167Z,3.97
2022-08-18T10:05:20.089Z,11.52
2022-08-18T10:07:50.713Z,5.03
2022-08-18T10:11:00.876Z,5.90
2022-08-18T10:13:52.975Z,4.85
2022-08-18T10:16:22.796Z,6.13
2022-08-18T10:19:12.048Z,6.57
2022-08-18T10:22:01.572Z,6.15
2022-08-18T10:24:35.943Z,5.30
2022-08-18T10:27:29.288Z,5.05
2022-08-18T10:29:58.374Z,6.22
2022-08-18T10:32:41.801Z,6.32
2022-08-18T10:35:36.742Z,5.05
2022-08-18T10:38:19.142Z,4.68
2022-08-18T10:41:15.181Z,3.47
2022-08-18T10:43:57.459Z,5.28
2022-08-18T10:46:39.613Z,5.43
2022-08-18T10:49:13.650Z,6.00
2022-08-18T10:51:59.138Z,4.68
2022-08-18T10:54:51.221Z,4.75
2022-08-18T10:57:37.353Z,3.55
2022-08-18T11:00:17.560Z,6.30
2022-08-18T11:02:48.738Z,7.22
2022-08-18T11:05:21.320Z,6.05
2022-08-18T11:07:52.177Z,3.90
2022-08-18T11:13:29.345Z,8.15
2022-08-18T11:16:02.698Z,4.82
2022-08-18T11:18:32.754Z,6.57
2022-08-18T11:21:42.859Z,6.25
2022-08-18T11:24:17.936Z,6.35
2022-08-18T11:26:52.625Z,5.72
2022-08-18T11:29:34.329Z,5.03
2022-08-18T11:32:23.176Z,6.13
2022-08-18T11:35:18.897Z,4.70
2022-08-18T11:37:58.551Z,4.95
2022-08-18T11:43:41.260Z,5.00
2022-08-18T11:46:32.678Z,5.60
2022-08-18T11:49:24.077Z,8.18
2022-08-18T11:52:05.748Z,4.68
2022-08-18T11:54:50.186Z,5.80
2022-08-18T11:57:46.897Z,6.28
2022-08-18T12:00:44.323Z,5.53
2022-08-18T12:03:38.253Z,8.07
2022-08-18T12:06:30.729Z,6.90
2022-08-18T12:10:04.358Z,6.78
2022-08-18T12:12:18.432Z,4.88
2022-08-18T12:15:04.905Z,3.88
2022-08-18T12:17:42.794Z,5.75
2022-08-18T12:20:19.708Z,6.32
2022-08-18T12:22:50.030Z,7.32
2022-08-18T12:25:24.510Z,9.77
2022-08-18T12:27:55.934Z,7.68
2022-08-18T12:30:23.592Z,6.80
2022-08-18T12:32:55.740Z,10.10
2022-08-18T12:35:41.837Z,5.53
2022-08-18T12:38:12.880Z,9.82
2022-08-18T12:40:42.314Z,11.45
2022-08-18T12:43:09.721Z,6.93
2022-08-18T12:48:27.405Z,11.73
2022-08-18T12:50:58.458Z,10.27
2022-08-18T12:53:29.457Z,10.25
2022-08-18T12:56:20.321Z,8.77
2022-08-18T12:58:48.388Z,7.93
2022-08-18T13:01:17.742Z,8.68
2022-08-18T13:04:10.695Z,11.10
2022-08-18T13:06:40.726Z,12.50
2022-08-18T13:09:16.772Z,11.40
2022-08-18T13:11:56.475Z,11.35
2022-08-18T13:14:28.550Z,8.90
2022-08-18T13:16:55.785Z,15.60
2022-08-18T13:19:22.991Z,15.13
2022-08-18T13:21:51.158Z,10.98
2022-08-18T13:24:22.046Z,11.80
2022-08-18T13:26:51.685Z,10.38
2022-08-18T13:29:19.554Z,12.40
2022-08-18T13:31:55.499Z,12.98
2022-08-18T13:34:24.469Z,11.35
2022-08-18T13:36:51.745Z,10.10
2022-08-18T13:39:22.720Z,7.85
2022-08-18T13:41:53.785Z,7.95
2022-08-18T13:44:25.806Z,13.55
2022-08-18T13:46:54.573Z,10.43
2022-08-18T13:49:30.035Z,8.52
2022-08-18T13:52:00.902Z,11.83
2022-08-18T13:54:35.328Z,11.50
2022-08-18T13:57:04.232Z,10.25
2022-08-18T13:59:34.644Z,9.13
2022-08-18T14:02:08.365Z,10.82
2022-08-18T14:04:38.615Z,7.68
2022-08-18T14:07:11.145Z,5.32
2022-08-18T14:09:39.820Z,12.18
2022-08-18T14:12:15.816Z,9.57
2022-08-18T14:14:52.431Z,10.45
2022-08-18T14:17:22.649Z,7.85
2022-08-18T14:20:15.391Z,8.68
2022-08-18T14:23:10.706Z,10.43
2022-08-18T14:25:59.683Z,4.57
2022-08-18T14:28:28.537Z,8.43
2022-08-18T14:30:57.425Z,8.82
2022-08-18T14:33:34.244Z,8.77
2022-08-18T14:36:15.271Z,5.93
2022-08-18T14:38:43.341Z,7.80
2022-08-18T14:41:13.059Z,7.57
2022-08-18T14:44:11.198Z,6.53
2022-08-18T14:46:30.609Z,10.15
2022-08-18T14:49:04.044Z,6.05
2022-08-18T14:51:33.682Z,6.13
2022-08-18T14:54:02.202Z,6.07
2022-08-18T14:56:29.737Z,7.35
2022-08-18T14:59:01.116Z,6.78
2022-08-18T15:01:28.353Z,11.50
2022-08-18T15:04:19.329Z,4.85
2022-08-18T15:06:56.831Z,3.97
2022-08-18T15:09:30.339Z,6.72
2022-08-18T15:11:58.568Z,5.95
2022-08-18T15:14:33.261Z,6.18
2022-08-18T15:19:37.826Z,5.32
2022-08-18T15:22:35.885Z,7.70
2022-08-18T15:25:24.144Z,8.23
2022-08-18T15:27:52.612Z,5.43
2022-08-18T15:30:21.300Z,7.07
2022-08-18T15:32:50.055Z,6.05
2022-08-18T15:35:19.615Z,6.22
2022-08-18T15:37:51.096Z,3.20
2022-08-18T15:40:31.184Z,5.75
2022-08-18T15:43:09.575Z,6.03
2022-08-18T15:45:56.508Z,5.80
2022-08-18T15:48:28.157Z,7.07
2022-08-18T15:50:56.895Z,8.60
2022-08-18T15:53:29.663Z,5.93
2022-08-18T15:55:58.087Z,7.30
2022-08-18T15:58:26.665Z,5.68
2022-08-18T16:00:54.693Z,6.38
2022-08-18T16:03:22.005Z,8.40
2022-08-18T16:05:55.375Z,7.43
2022-08-18T16:08:25.032Z,6.43
2022-08-18T16:10:53.960Z,7.20
2022-08-18T16:13:21.968Z,5.55
2022-08-18T16:15:50.484Z,8.55
2022-08-18T16:18:21.189Z,5.40
2022-08-18T16:20:50.681Z,7.35
2022-08-18T16:23:20.232Z,4.30
2022-08-18T16:25:47.323Z,7.85
2022-08-18T16:28:14.609Z,4.97
2022-08-18T16:30:42.062Z,6.50
2022-08-18T16:33:09.623Z,5.95
2022-08-18T16:35:37.652Z,6.43
2022-08-18T16:38:09.392Z,5.63
2022-08-18T16:40:37.661Z,6.80
2022-08-18T16:43:06.014Z,4.55
2022-08-18T16:45:38.294Z,3.38
2022-08-18T16:48:08.198Z,5.10
2022-08-18T16:50:37.960Z,3.58
2022-08-18T16:53:05.706Z,3.28
2022-08-18T16:55:32.978Z,6.95
2022-08-18T16:58:18.708Z,7.75
2022-08-18T17:01:04.300Z,4.15
2022-08-18T17:03:50.005Z,5.10
2022-08-18T17:08:45.888Z,6.35
2022-08-18T17:11:16.602Z,7.38
2022-08-18T17:13:44.067Z,4.50
2022-08-18T17:16:12.213Z,5.40
2022-08-18T17:18:39.842Z,6.57
2022-08-18T17:21:09.651Z,4.72
2022-08-18T17:23:39.053Z,5.93
2022-08-18T17:26:12.747Z,5.50
2022-08-18T17:28:50.782Z,6.30
2022-08-18T17:31:24.946Z,8.00
2022-08-18T17:33:57.049Z,5.70
2022-08-18T17:36:39.058Z,9.30
2022-08-18T17:39:08.662Z,5.18
2022-08-18T17:41:58.680Z,2.88
2022-08-18T17:44:28.638Z,4.20
2022-08-18T17:47:00.649Z,3.40
2022-08-18T17:49:49.185Z,3.65
2022-08-18T17:52:53.385Z,4.82
2022-08-18T17:55:27.241Z,4.72
2022-08-18T17:58:28.120Z,3.80
2022-08-18T18:00:55.381Z,2.60
2022-08-18T18:03:23.214Z,2.17
2022-08-18T18:06:08.721Z,6.15
2022-08-18T18:08:51.020Z,2.58
2022-08-18T18:11:35.286Z,2.03
2022-08-18T18:14:24.325Z,2.45
2022-08-18T18:17:07.295Z,4.43
2022-08-18T18:19:35.802Z,2.22
2022-08-18T18:22:16.803Z,2.75
2022-08-18T18:24:57.213Z,2.75
2022-08-18T18:27:37.158Z,3.80
2022-08-18T18:30:27.610Z,3.55
2022-08-18T18:33:02.868Z,3.90
2022-08-18T18:35:54.906Z,0.93
2022-08-18T18:38:27.737Z,1.55
2022-08-18T18:40:59.676Z,0.95
2022-08-18T18:43:47.022Z,1.02
2022-08-18T18:46:19.516Z,2.78
2022-08-18T18:49:01.857Z,0.95
2022-08-18T18:51:56.895Z,3.25
2022-08-18T18:54:39.876Z,1.80
2022-08-18T18:57:13.623Z,4.15
2022-08-18T19:00:19.813Z,1.35
2022-08-18T19:02:56.700Z,0.93
2022-08-18T19:05:59.173Z,3.75
2022-08-18T19:08:56.866Z,0.70
2022-08-18T19:11:53.267Z,5.53
2022-08-18T19:14:49.897Z,2.40
2022-08-18T19:17:36.549Z,2.67
2022-08-18T19:22:04.853Z,1.45
2022-08-18T19:23:55.442Z,0.98
2022-08-18T19:26:39.264Z,2.38
2022-08-18T19:29:13.994Z,2.17
2022-08-18T19:32:01.552Z,0.70
2022-08-18T19:34:32.651Z,3.28
2022-08-18T19:37:27.336Z,0.70
2022-08-18T19:39:58.749Z,2.92
2022-08-18T19:42:39.952Z,1.00
2022-08-18T19:45:29.893Z,1.50
2022-08-18T19:48:07.525Z,2.28
2022-08-18T19:50:43.407Z,2.38
2022-08-18T19:53:17.829Z,3.38
2022-08-18T19:56:02.455Z,0.90
2022-08-18T19:59:15.589Z,2.22
2022-08-18T20:01:52.235Z,4.47
2022-08-18T20:04:37.995Z,2.53
2022-08-18T20:07:38.980Z,6.50
2022-08-18T20:10:21.118Z,1.17
2022-08-18T20:13:03.271Z,4.47
2022-08-18T20:15:31.201Z,2.92
2022-08-18T20:17:58.306Z,3.92
2022-08-18T20:20:32.576Z,6.10
2022-08-18T20:23:30.831Z,3.30
2022-08-18T20:25:58.054Z,5.22
2022-08-18T20:28:38.520Z,2.30
2022-08-18T20:31:16.183Z,4.95
2022-08-18T20:34:11.067Z,1.83
2022-08-18T20:36:42.871Z,4.18
2022-08-18T20:39:32.472Z,6.30
2022-08-18T20:42:04.823Z,3.53
2022-08-18T20:44:37.555Z,2.95
2022-08-18T20:47:31.339Z,3.58
2022-08-18T20:50:19.736Z,4.43
2022-08-18T20:52:49.302Z,5.38
2022-08-18T20:55:30.913Z,5.18
2022-08-18T20:58:05.463Z,7.90
2022-08-18T21:00:37.565Z,4.88
2022-08-18T21:03:13.328Z,5.75
2022-08-18T21:05:43.766Z,4.05
2022-08-18T21:08:16.732Z,3.88
2022-08-18T21:10:51.799Z,5.30
2022-08-18T21:13:40.661Z,3.72
2022-08-18T21:16:10.372Z,5.45
2022-08-18T21:18:39.659Z,5.05
2022-08-18T21:21:15.573Z,3.53
2022-08-18T21:23:52.984Z,3.97
2022-08-18T21:26:21.460Z,2.35
2022-08-18T21:28:55.144Z,2.35
2022-08-18T21:31:45.117Z,4.10
2022-08-18T21:34:34.560Z,5.32
2022-08-18T21:37:08.730Z,4.78
2022-08-18T21:39:47.712Z,7.80
2022-08-18T21:42:40.732Z,3.42
2022-08-18T21:45:18.774Z,3.35
2022-08-18T21:47:52.622Z,4.10
2022-08-18T21:50:24.256Z,5.40
2022-08-18T21:52:57.403Z,2.25
2022-08-18T21:55:27.334Z,3.38
2022-08-18T21:58:16.948Z,4.03
2022-08-18T22:00:47.193Z,3.95
2022-08-18T22:03:24.063Z,3.53
2022-08-18T22:06:12.401Z,3.53
2022-08-18T22:09:23.190Z,4.10
2022-08-18T22:12:40.989Z,2.45
2022-08-18T22:15:10.916Z,2.67
2022-08-18T22:17:49.421Z,4.43
2022-08-18T22:20:45.739Z,5.80
2022-08-18T22:23:34.278Z,5.07
2022-08-18T22:26:13.145Z,5.28
2022-08-18T22:28:46.735Z,4.95
2022-08-18T22:31:18.143Z,6.20
2022-08-18T22:33:48.408Z,5.80
2022-08-18T22:36:25.962Z,2.30
2022-08-18T22:38:54.233Z,3.00
2022-08-18T22:41:22.223Z,2.33
2022-08-18T22:43:52.754Z,1.95
2022-08-18T22:46:24.680Z,2.58
2022-08-18T22:48:52.893Z,1.33
2022-08-18T22:51:24.209Z,3.92
2022-08-18T22:53:51.819Z,0.77
2022-08-18T22:56:33.854Z,3.03
2022-08-18T22:59:13.537Z,0.43
2022-08-18T23:01:46.344Z,1.42
2022-08-18T23:04:16.028Z,1.20
2022-08-18T23:06:51.583Z,0.90
2022-08-18T23:09:24.772Z,1.38
2022-08-18T23:11:53.695Z,0.50
2022-08-18T23:14:22.354Z,1.02
2022-08-18T23:16:50.508Z,0.38
2022-08-18T23:19:19.649Z,0.90
2022-08-18T23:21:48.742Z,2.05
2022-08-18T23:24:18.568Z,1.77
2022-08-18T23:26:45.913Z,1.80
2022-08-18T23:29:14.551Z,1.13
2022-08-18T23:31:44.215Z,0.55
2022-08-18T23:34:13.780Z,1.48
2022-08-18T23:36:45.362Z,2.17
2022-08-18T23:39:14.642Z,2.22
2022-08-18T23:41:42.808Z,1.70
2022-08-18T23:44:11.471Z,2.25
2022-08-18T23:46:39.912Z,0.60
2022-08-18T23:49:10.705Z,2.83
2022-08-18T23:51:51.052Z,2.47
2022-08-18T23:54:21.687Z,4.22
2022-08-18T23:56:49.187Z,0.75
2022-08-18T23:59:17.930Z,1.52
